Time;durP1;ratioP1;P1;durP2;ratioP2;P2;SDS_P1;SDS_P2;PMS_P1;PMS_P2;Temp;Humidity;BMP_temperature;BMP_pressure;BME280_temperature;BME280_humidity;BME280_pressure;Samples;Min_cycle;Max_cycle;Signal;HPM_P1;HPM_P2
2021/08/01 00:00:50;;;;;;;533.05;406.40;;;;;;;;;;4948424;29;20511;-74
2021/08/01 00:03:16;;;;;;;539.95;415.15;;;;;;;;;;4948197;29;20031;-74
2021/08/01 00:05:45;;;;;;;536.85;409.85;;;;;;;;;;4948133;29;20470;-75
2021/08/01 00:08:11;;;;;;;536.75;410.15;;;;;;;;;;4938437;29;20027;-74
2021/08/01 00:10:37;;;;;;;536.17;412.55;;;;;;;;;;4948838;29;20096;-74
2021/08/01 00:13:03;;;;;;;534.80;413.35;;;;;;;;;;4948215;29;20445;-75
2021/08/01 00:15:29;;;;;;;533.13;407.00;;;;;;;;;;4948184;29;20023;-74
2021/08/01 00:17:55;;;;;;;532.33;407.17;;;;;;;;;;4931836;28;20024;-74
2021/08/01 00:20:21;;;;;;;532.60;406.05;;;;;;;;;;4946744;29;20019;-75
2021/08/01 00:22:47;;;;;;;533.33;402.35;;;;;;;;;;4938406;29;20372;-75
2021/08/01 00:25:13;;;;;;;536.28;411.33;;;;;;;;;;4947138;29;20034;-75
2021/08/01 00:27:40;;;;;;;535.10;406.55;;;;;;;;;;4949232;29;20027;-75
2021/08/01 00:30:07;;;;;;;533.42;412.23;;;;;;;;;;4947232;29;20564;-74
2021/08/01 00:32:33;;;;;;;535.30;413.92;;;;;;;;;;4948221;29;20085;-74
2021/08/01 00:35:00;;;;;;;540.08;423.27;;;;;;;;;;4945679;29;20027;-76
2021/08/01 00:37:26;;;;;;;536.85;414.20;;;;;;;;;;4947667;28;20441;-74
2021/08/01 00:39:51;;;;;;;535.83;410.30;;;;;;;;;;4947240;29;20029;-75
2021/08/01 00:42:20;;;;;;;538.38;420.30;;;;;;;;;;4946085;29;20093;-74
2021/08/01 00:44:46;;;;;;;534.60;412.25;;;;;;;;;;4947310;29;20072;-74
2021/08/01 00:47:13;;;;;;;536.90;416.20;;;;;;;;;;4944972;29;20011;-74
2021/08/01 00:49:39;;;;;;;532.75;405.38;;;;;;;;;;4947884;29;20035;-76
2021/08/01 00:52:05;;;;;;;534.47;415.00;;;;;;;;;;4947473;29;20500;-74
2021/08/01 00:54:32;;;;;;;536.13;416.65;;;;;;;;;;4948168;29;20027;-74
2021/08/01 00:56:58;;;;;;;540.42;423.80;;;;;;;;;;4947617;29;20156;-74
2021/08/01 00:59:24;;;;;;;534.35;414.58;;;;;;;;;;4948038;29;20102;-74
2021/08/01 01:01:55;;;;;;;536.40;419.85;;;;;;;;;;4947344;29;20023;-75
2021/08/01 01:04:24;;;;;;;536.17;414.20;;;;;;;;;;4946797;29;20031;-74
2021/08/01 01:07:09;;;;;;;535.47;411.90;;;;;;;;;;4930338;29;20397;-75
2021/08/01 01:09:45;;;;;;;531.78;409.80;;;;;;;;;;4947487;28;20109;-75
2021/08/01 01:12:17;;;;;;;534.75;416.50;;;;;;;;;;4946437;29;20033;-74
2021/08/01 01:14:48;;;;;;;532.60;407.55;;;;;;;;;;4946613;29;20369;-75
2021/08/01 01:17:16;;;;;;;530.63;411.67;;;;;;;;;;4947004;29;20031;-74
2021/08/01 01:20:02;;;;;;;531.03;410.55;;;;;;;;;;4947274;29;20027;-74
2021/08/01 01:22:57;;;;;;;532.75;410.77;;;;;;;;;;4944583;29;20081;-75
2021/08/01 01:25:40;;;;;;;532.30;411.17;;;;;;;;;;4938464;28;20097;-74
2021/08/01 01:28:11;;;;;;;532.67;413.30;;;;;;;;;;4947059;29;20486;-75
2021/08/01 01:30:40;;;;;;;532.45;411.88;;;;;;;;;;4947852;29;20374;-73
2021/08/01 01:33:10;;;;;;;534.20;417.55;;;;;;;;;;4947439;29;20024;-74
2021/08/01 01:35:39;;;;;;;536.58;421.23;;;;;;;;;;4946979;28;20050;-74
2021/08/01 01:38:07;;;;;;;532.65;414.27;;;;;;;;;;4946714;29;20445;-74
2021/08/01 01:40:36;;;;;;;531.45;411.02;;;;;;;;;;4946757;29;20035;-74
2021/08/01 01:43:06;;;;;;;533.40;412.98;;;;;;;;;;4948471;28;20053;-74
2021/08/01 01:45:32;;;;;;;531.50;410.50;;;;;;;;;;4950508;29;20019;-73
2021/08/01 01:47:58;;;;;;;533.53;415.48;;;;;;;;;;4950419;29;20395;-74
2021/08/01 01:50:24;;;;;;;533.00;414.67;;;;;;;;;;4950408;29;20065;-73
2021/08/01 01:52:51;;;;;;;531.20;409.65;;;;;;;;;;4950716;29;20522;-73
2021/08/01 01:55:17;;;;;;;537.30;420.13;;;;;;;;;;4950204;29;20049;-73
2021/08/01 01:57:44;;;;;;;533.58;414.92;;;;;;;;;;4949890;28;20437;-73
2021/08/01 02:00:10;;;;;;;532.00;408.77;;;;;;;;;;4949859;29;20031;-74
2021/08/01 02:02:36;;;;;;;529.75;403.60;;;;;;;;;;4950390;29;20039;-73
2021/08/01 02:05:04;;;;;;;536.17;423.42;;;;;;;;;;4949884;29;20026;-75
2021/08/01 02:07:33;;;;;;;531.40;415.52;;;;;;;;;;4948629;29;20036;-74
2021/08/01 02:10:04;;;;;;;531.55;408.40;;;;;;;;;;4947726;29;20500;-74
2021/08/01 02:12:38;;;;;;;533.08;416.13;;;;;;;;;;4946484;28;20133;-74
2021/08/01 02:15:09;;;;;;;531.00;413.88;;;;;;;;;;4946423;29;20031;-74
2021/08/01 02:17:41;;;;;;;530.15;407.02;;;;;;;;;;4932350;29;20407;-74
2021/08/01 02:20:08;;;;;;;533.10;414.00;;;;;;;;;;4950238;29;20062;-73
2021/08/01 02:22:35;;;;;;;533.13;416.60;;;;;;;;;;4950592;29;20088;-73
2021/08/01 02:25:01;;;;;;;529.97;409.95;;;;;;;;;;4950764;28;20035;-74
2021/08/01 02:27:30;;;;;;;531.83;411.48;;;;;;;;;;4949654;29;20097;-73
2021/08/01 02:29:57;;;;;;;533.00;415.40;;;;;;;;;;4931004;29;20066;-73
2021/08/01 02:32:23;;;;;;;534.80;419.92;;;;;;;;;;4947854;29;20031;-73
2021/08/01 02:34:49;;;;;;;533.88;415.05;;;;;;;;;;4932342;29;20031;-73
2021/08/01 02:37:16;;;;;;;533.67;413.48;;;;;;;;;;4949595;29;20027;-74
2021/08/01 02:39:43;;;;;;;533.45;411.05;;;;;;;;;;4948798;29;20023;-74
2021/08/01 02:42:09;;;;;;;533.90;415.23;;;;;;;;;;4944999;29;20054;-73
2021/08/01 02:44:36;;;;;;;530.80;412.70;;;;;;;;;;4949053;29;20069;-73
2021/08/01 02:47:04;;;;;;;535.70;418.17;;;;;;;;;;4949678;29;20559;-73
2021/08/01 02:49:33;;;;;;;538.05;421.20;;;;;;;;;;4948838;29;20107;-73
2021/08/01 02:52:00;;;;;;;533.40;415.85;;;;;;;;;;4948865;29;20453;-73
2021/08/01 02:54:27;;;;;;;533.90;417.23;;;;;;;;;;4948868;28;20038;-73
2021/08/01 02:57:01;;;;;;;538.05;417.80;;;;;;;;;;4948260;28;20135;-74
2021/08/01 02:59:27;;;;;;;539.45;418.20;;;;;;;;;;4949360;29;20126;-73
2021/08/01 03:01:55;;;;;;;531.35;415.75;;;;;;;;;;4948270;29;20492;-73
2021/08/01 03:04:27;;;;;;;532.25;408.58;;;;;;;;;;4949239;29;20046;-73
2021/08/01 03:06:54;;;;;;;529.35;410.00;;;;;;;;;;4949093;29;20042;-74
2021/08/01 03:09:20;;;;;;;529.40;408.40;;;;;;;;;;4949352;29;20042;-73
2021/08/01 03:11:46;;;;;;;530.65;408.55;;;;;;;;;;4948062;29;20042;-74
2021/08/01 03:14:13;;;;;;;530.13;413.13;;;;;;;;;;4948435;29;20023;-74
2021/08/01 03:16:39;;;;;;;527.95;403.60;;;;;;;;;;4948466;29;20294;-74
2021/08/01 03:19:05;;;;;;;529.78;409.35;;;;;;;;;;4947576;29;20185;-74
2021/08/01 03:21:32;;;;;;;529.75;404.90;;;;;;;;;;4937553;29;20019;-73
2021/08/01 03:23:57;;;;;;;528.50;409.13;;;;;;;;;;4949226;29;20047;-75
2021/08/01 03:26:23;;;;;;;529.95;409.27;;;;;;;;;;4948257;28;20173;-73
2021/08/01 03:28:49;;;;;;;526.70;407.10;;;;;;;;;;4948651;29;20102;-74
2021/08/01 03:31:15;;;;;;;536.33;414.58;;;;;;;;;;4948285;28;20023;-73
2021/08/01 03:33:41;;;;;;;529.40;405.50;;;;;;;;;;4949758;29;20429;-73
2021/08/01 03:36:07;;;;;;;533.92;414.10;;;;;;;;;;4947554;28;20058;-73
2021/08/01 03:38:33;;;;;;;529.90;405.17;;;;;;;;;;4948699;28;20027;-74
2021/08/01 03:40:59;;;;;;;526.85;404.40;;;;;;;;;;4947755;29;20042;-73
2021/08/01 03:43:25;;;;;;;529.47;408.40;;;;;;;;;;4948284;29;20054;-73
2021/08/01 03:45:51;;;;;;;531.25;413.80;;;;;;;;;;4949158;29;20029;-73
2021/08/01 03:48:17;;;;;;;527.35;399.55;;;;;;;;;;4948651;28;20107;-74
2021/08/01 03:50:43;;;;;;;529.08;412.38;;;;;;;;;;4948846;29;20034;-73
2021/08/01 03:53:09;;;;;;;536.72;418.05;;;;;;;;;;4948499;29;20078;-74
2021/08/01 03:55:35;;;;;;;531.17;412.83;;;;;;;;;;4949059;28;20096;-73
2021/08/01 03:58:01;;;;;;;527.53;406.13;;;;;;;;;;4948490;28;20030;-73
2021/08/01 04:00:27;;;;;;;533.85;417.98;;;;;;;;;;4948826;29;20038;-73
2021/08/01 04:02:53;;;;;;;531.25;409.15;;;;;;;;;;4948163;29;20043;-73
2021/08/01 04:05:19;;;;;;;528.85;407.20;;;;;;;;;;4947463;28;20039;-73
2021/08/01 04:07:45;;;;;;;527.08;404.63;;;;;;;;;;4948688;29;20023;-74
2021/08/01 04:10:11;;;;;;;538.67;414.83;;;;;;;;;;4948462;29;20812;-74
2021/08/01 04:12:37;;;;;;;531.00;407.02;;;;;;;;;;4938962;29;20713;-73
2021/08/01 04:15:03;;;;;;;530.83;414.90;;;;;;;;;;4948400;29;20019;-73
2021/08/01 04:17:31;;;;;;;528.47;406.35;;;;;;;;;;4948089;28;20035;-73
2021/08/01 04:19:57;;;;;;;533.92;412.88;;;;;;;;;;4945056;29;20019;-73
2021/08/01 04:22:25;;;;;;;531.50;418.20;;;;;;;;;;4948449;29;20104;-73
2021/08/01 04:24:51;;;;;;;528.88;413.77;;;;;;;;;;4947061;29;20046;-74
2021/08/01 04:27:17;;;;;;;527.17;408.08;;;;;;;;;;4948344;29;20161;-73
2021/08/01 04:29:43;;;;;;;526.67;414.45;;;;;;;;;;4947633;28;20607;-74
2021/08/01 04:32:09;;;;;;;527.40;410.80;;;;;;;;;;4947993;29;20449;-74
2021/08/01 04:34:35;;;;;;;533.83;414.70;;;;;;;;;;4947520;29;20053;-74
2021/08/01 04:37:01;;;;;;;528.65;408.33;;;;;;;;;;4947476;29;20042;-74
2021/08/01 04:39:27;;;;;;;531.88;415.20;;;;;;;;;;4930679;29;20038;-73
2021/08/01 04:41:53;;;;;;;528.78;407.10;;;;;;;;;;4947441;29;20632;-74
2021/08/01 04:44:19;;;;;;;528.55;410.25;;;;;;;;;;4948108;29;20070;-73
2021/08/01 04:46:45;;;;;;;533.05;412.58;;;;;;;;;;4947128;29;20481;-73
2021/08/01 04:49:11;;;;;;;528.13;411.95;;;;;;;;;;4938752;29;20031;-74
2021/08/01 04:51:37;;;;;;;532.53;417.80;;;;;;;;;;4947155;29;20066;-73
2021/08/01 04:54:03;;;;;;;529.92;409.73;;;;;;;;;;4948203;29;20110;-73
2021/08/01 04:56:28;;;;;;;535.50;420.02;;;;;;;;;;4946811;28;20078;-73
2021/08/01 04:58:54;;;;;;;532.58;420.20;;;;;;;;;;4947258;28;20023;-74
2021/08/01 05:01:20;;;;;;;526.88;410.02;;;;;;;;;;4935435;29;20023;-74
2021/08/01 05:03:46;;;;;;;528.42;409.75;;;;;;;;;;4947723;29;20039;-74
2021/08/01 05:06:12;;;;;;;537.00;414.58;;;;;;;;;;4946498;29;20099;-73
2021/08/01 05:08:40;;;;;;;528.03;414.10;;;;;;;;;;4947690;29;20070;-73
2021/08/01 05:11:06;;;;;;;525.13;408.27;;;;;;;;;;4947043;29;20456;-73
2021/08/01 05:13:32;;;;;;;529.55;414.45;;;;;;;;;;4947609;29;20038;-73
2021/08/01 05:15:58;;;;;;;536.03;413.83;;;;;;;;;;4948176;29;20031;-73
2021/08/01 05:18:24;;;;;;;530.15;423.45;;;;;;;;;;4946772;29;20106;-73
2021/08/01 05:20:49;;;;;;;529.67;413.02;;;;;;;;;;4946601;28;20047;-75
2021/08/01 05:23:16;;;;;;;527.40;414.17;;;;;;;;;;4947131;28;20054;-73
2021/08/01 05:25:42;;;;;;;527.38;408.63;;;;;;;;;;4946928;28;20019;-73
2021/08/01 05:28:08;;;;;;;529.90;417.58;;;;;;;;;;4956367;28;20085;-73
2021/08/01 05:30:34;;;;;;;528.05;412.50;;;;;;;;;;4946696;29;20023;-73
2021/08/01 05:33:04;;;;;;;531.45;414.58;;;;;;;;;;4947297;29;20084;-73
2021/08/01 05:35:30;;;;;;;530.83;417.42;;;;;;;;;;4945781;29;20024;-74
2021/08/01 05:37:56;;;;;;;533.92;412.67;;;;;;;;;;4946885;28;20318;-74
2021/08/01 05:40:22;;;;;;;530.95;422.02;;;;;;;;;;4947391;29;20150;-73
2021/08/01 05:42:48;;;;;;;529.42;414.15;;;;;;;;;;4947019;29;20070;-73
2021/08/01 05:45:14;;;;;;;531.47;420.27;;;;;;;;;;4947735;28;20027;-73
2021/08/01 05:47:40;;;;;;;533.35;425.63;;;;;;;;;;4947097;29;20098;-73
2021/08/01 05:50:08;;;;;;;533.70;419.30;;;;;;;;;;4927859;29;20024;-73
2021/08/01 05:52:34;;;;;;;536.05;419.80;;;;;;;;;;4947494;29;20055;-74
2021/08/01 05:55:00;;;;;;;531.97;418.67;;;;;;;;;;4945476;29;20572;-74
2021/08/01 05:57:26;;;;;;;531.10;417.58;;;;;;;;;;4946778;29;20656;-73
2021/08/01 05:59:52;;;;;;;528.92;419.17;;;;;;;;;;4947624;29;20027;-74
2021/08/01 06:02:18;;;;;;;531.60;421.38;;;;;;;;;;4946463;29;20089;-73
2021/08/01 06:04:44;;;;;;;531.47;426.13;;;;;;;;;;4946118;29;20039;-74
2021/08/01 06:07:10;;;;;;;529.65;423.50;;;;;;;;;;4927410;29;20098;-73
2021/08/01 06:09:39;;;;;;;532.33;421.27;;;;;;;;;;4945773;29;20055;-73
2021/08/01 06:12:05;;;;;;;531.72;425.33;;;;;;;;;;4946896;29;20430;-74
2021/08/01 06:14:31;;;;;;;530.88;427.80;;;;;;;;;;4929478;29;20042;-74
2021/08/01 06:16:57;;;;;;;533.53;425.95;;;;;;;;;;4947836;29;20015;-74
2021/08/01 06:19:23;;;;;;;531.70;426.00;;;;;;;;;;4946519;29;20401;-74
2021/08/01 06:21:49;;;;;;;529.60;426.85;;;;;;;;;;4946151;29;20034;-74
2021/08/01 06:24:15;;;;;;;530.22;430.65;;;;;;;;;;4946212;29;20034;-73
2021/08/01 06:26:42;;;;;;;532.95;431.23;;;;;;;;;;4940048;28;20023;-73
2021/08/01 06:29:08;;;;;;;530.63;429.25;;;;;;;;;;4948463;28;20020;-73
2021/08/01 06:31:35;;;;;;;537.05;430.77;;;;;;;;;;4933501;29;20019;-74
2021/08/01 06:34:01;;;;;;;532.00;427.02;;;;;;;;;;4949863;28;20473;-74
2021/08/01 06:36:27;;;;;;;529.85;428.63;;;;;;;;;;4949722;29;20544;-75
2021/08/01 06:38:52;;;;;;;533.53;434.20;;;;;;;;;;4950105;29;20103;-75
2021/08/01 06:41:19;;;;;;;534.10;433.25;;;;;;;;;;4949306;29;20109;-74
2021/08/01 06:43:45;;;;;;;532.25;426.85;;;;;;;;;;4949652;29;20039;-75
2021/08/01 06:46:11;;;;;;;533.97;434.40;;;;;;;;;;4949411;29;20472;-75
2021/08/01 06:48:38;;;;;;;532.08;432.60;;;;;;;;;;4949755;28;20055;-75
2021/08/01 06:51:05;;;;;;;532.17;433.02;;;;;;;;;;4949891;29;20038;-75
2021/08/01 06:53:31;;;;;;;532.70;431.25;;;;;;;;;;4929292;29;20434;-74
2021/08/01 06:55:57;;;;;;;530.97;432.20;;;;;;;;;;4948695;29;20027;-75
2021/08/01 06:58:23;;;;;;;533.53;438.20;;;;;;;;;;4945475;28;20357;-74
2021/08/01 07:00:50;;;;;;;534.97;439.90;;;;;;;;;;4931871;28;20035;-74
2021/08/01 07:03:16;;;;;;;541.13;444.02;;;;;;;;;;4949838;28;20035;-77
2021/08/01 07:05:42;;;;;;;537.58;437.08;;;;;;;;;;4949843;29;20027;-74
2021/08/01 07:08:08;;;;;;;543.85;444.38;;;;;;;;;;4949706;29;20567;-74
2021/08/01 07:10:34;;;;;;;546.00;443.63;;;;;;;;;;4948917;29;20089;-74
2021/08/01 07:13:07;;;;;;;541.00;443.23;;;;;;;;;;4950067;29;20031;-74
2021/08/01 07:15:34;;;;;;;536.40;440.50;;;;;;;;;;4935705;29;20020;-75
2021/08/01 07:18:00;;;;;;;542.28;442.67;;;;;;;;;;4949454;29;20015;-74
2021/08/01 07:20:26;;;;;;;534.88;440.92;;;;;;;;;;4948845;29;20019;-74
2021/08/01 07:22:54;;;;;;;535.83;440.00;;;;;;;;;;4948505;29;20035;-75
2021/08/01 07:25:20;;;;;;;535.15;438.85;;;;;;;;;;4948547;29;20027;-74
2021/08/01 07:27:46;;;;;;;532.00;437.48;;;;;;;;;;4949547;29;20034;-74
2021/08/01 07:30:13;;;;;;;538.38;444.50;;;;;;;;;;4949076;28;20030;-74
2021/08/01 07:32:39;;;;;;;539.50;445.90;;;;;;;;;;4949478;28;20026;-74
2021/08/01 07:35:06;;;;;;;536.40;434.15;;;;;;;;;;4947850;29;20031;-74
2021/08/01 07:37:32;;;;;;;536.90;438.02;;;;;;;;;;4948929;29;20034;-74
2021/08/01 07:39:58;;;;;;;536.78;443.80;;;;;;;;;;4947742;28;20086;-75
2021/08/01 07:42:24;;;;;;;540.30;445.15;;;;;;;;;;4929226;29;20480;-75
2021/08/01 07:44:52;;;;;;;536.85;441.15;;;;;;;;;;4948535;29;20365;-74
2021/08/01 07:47:19;;;;;;;533.92;439.20;;;;;;;;;;4948915;29;20025;-75
2021/08/01 07:49:46;;;;;;;539.47;445.38;;;;;;;;;;4948510;29;20027;-74
2021/08/01 07:52:12;;;;;;;533.10;434.17;;;;;;;;;;4949697;29;20061;-74
2021/08/01 07:54:38;;;;;;;535.70;440.50;;;;;;;;;;4949203;28;20097;-74
2021/08/01 07:57:05;;;;;;;537.85;445.20;;;;;;;;;;4949841;29;20023;-74
2021/08/01 07:59:30;;;;;;;539.95;444.90;;;;;;;;;;4947715;28;20101;-74
2021/08/01 08:01:56;;;;;;;536.05;439.15;;;;;;;;;;4939558;29;20118;-74
2021/08/01 08:04:22;;;;;;;531.28;432.48;;;;;;;;;;4948486;29;20035;-74
2021/08/01 08:06:51;;;;;;;537.40;441.05;;;;;;;;;;4947836;28;20089;-75
2021/08/01 08:09:17;;;;;;;535.35;440.88;;;;;;;;;;4947607;28;20051;-76
2021/08/01 08:11:42;;;;;;;535.50;440.27;;;;;;;;;;4947874;28;20096;-75
2021/08/01 08:14:08;;;;;;;535.95;440.77;;;;;;;;;;4947592;28;21248;-75
2021/08/01 08:16:34;;;;;;;541.47;449.08;;;;;;;;;;4946435;28;20035;-77
2021/08/01 08:19:00;;;;;;;539.67;445.20;;;;;;;;;;4947994;29;20033;-75
2021/08/01 08:21:26;;;;;;;533.50;439.05;;;;;;;;;;4948754;29;20522;-75
2021/08/01 08:23:53;;;;;;;539.08;448.17;;;;;;;;;;4947979;28;20055;-75
2021/08/01 08:26:19;;;;;;;533.83;438.70;;;;;;;;;;4948029;29;20115;-74
2021/08/01 08:28:45;;;;;;;530.83;437.00;;;;;;;;;;4947585;29;20023;-75
2021/08/01 08:31:11;;;;;;;530.00;436.45;;;;;;;;;;4948015;29;20089;-76
2021/08/01 08:33:38;;;;;;;547.00;446.15;;;;;;;;;;4947344;29;20429;-75
2021/08/01 08:36:04;;;;;;;532.78;440.42;;;;;;;;;;4949277;28;20600;-75
2021/08/01 08:38:30;;;;;;;532.50;444.30;;;;;;;;;;4947345;29;20038;-75
2021/08/01 08:40:56;;;;;;;534.25;445.70;;;;;;;;;;4947698;29;20045;-75
2021/08/01 08:43:22;;;;;;;538.15;450.77;;;;;;;;;;4947749;29;20043;-74
2021/08/01 08:45:48;;;;;;;537.38;447.80;;;;;;;;;;4946836;29;20361;-75
2021/08/01 08:48:15;;;;;;;537.05;446.45;;;;;;;;;;4920755;28;20059;-74
2021/08/01 08:50:41;;;;;;;536.47;446.75;;;;;;;;;;4947227;28;20031;-73
2021/08/01 08:53:07;;;;;;;533.65;442.45;;;;;;;;;;4948897;29;20046;-74
2021/08/01 08:55:34;;;;;;;543.67;452.65;;;;;;;;;;4946428;29;20692;-74
2021/08/01 08:58:02;;;;;;;537.85;449.90;;;;;;;;;;4947811;28;20034;-75
2021/08/01 09:00:28;;;;;;;538.03;453.77;;;;;;;;;;4946680;29;20536;-73
2021/08/01 09:02:55;;;;;;;538.97;453.33;;;;;;;;;;4947051;29;20031;-74
2021/08/01 09:05:22;;;;;;;536.40;451.95;;;;;;;;;;4945275;29;20019;-74
2021/08/01 09:07:48;;;;;;;544.00;465.63;;;;;;;;;;4947884;28;20340;-74
2021/08/01 09:10:15;;;;;;;537.40;451.05;;;;;;;;;;4929148;29;20023;-74
2021/08/01 09:12:44;;;;;;;540.28;456.65;;;;;;;;;;4946973;29;20110;-74
2021/08/01 09:15:15;;;;;;;540.80;460.85;;;;;;;;;;4945565;29;20108;-73
2021/08/01 09:17:41;;;;;;;543.17;470.35;;;;;;;;;;4947779;29;20023;-73
2021/08/01 09:20:18;;;;;;;547.47;477.80;;;;;;;;;;4947620;29;20043;-74
2021/08/01 09:23:05;;;;;;;546.53;470.52;;;;;;;;;;4944684;29;20023;-75
2021/08/01 09:25:32;;;;;;;542.67;467.48;;;;;;;;;;4923241;28;20047;-73
2021/08/01 09:28:17;;;;;;;544.60;472.58;;;;;;;;;;4946953;29;20024;-74
2021/08/01 09:30:43;;;;;;;545.67;481.33;;;;;;;;;;4940450;28;20110;-73
2021/08/01 09:33:09;;;;;;;550.78;489.02;;;;;;;;;;4946104;29;20406;-74
2021/08/01 09:35:35;;;;;;;552.13;491.27;;;;;;;;;;4929531;28;20027;-73
2021/08/01 09:38:01;;;;;;;553.78;492.80;;;;;;;;;;4946978;29;20627;-73
2021/08/01 09:40:31;;;;;;;553.40;492.67;;;;;;;;;;4930456;29;20030;-74
2021/08/01 09:43:15;;;;;;;555.17;494.30;;;;;;;;;;4943555;29;20546;-74
2021/08/01 09:45:41;;;;;;;556.60;495.63;;;;;;;;;;4944524;28;20053;-73
2021/08/01 09:48:18;;;;;;;553.25;492.38;;;;;;;;;;4945460;28;21447;-74
2021/08/01 09:51:01;;;;;;;561.40;499.73;;;;;;;;;;4943499;29;20106;-73
2021/08/01 09:53:27;;;;;;;558.33;497.08;;;;;;;;;;4935999;28;20019;-74
2021/08/01 09:56:13;;;;;;;545.90;485.75;;;;;;;;;;4944500;28;20466;-74
2021/08/01 09:58:40;;;;;;;542.22;471.60;;;;;;;;;;4927964;28;20038;-75
2021/08/01 10:01:06;;;;;;;538.45;460.35;;;;;;;;;;4945567;29;20028;-74
2021/08/01 10:03:39;;;;;;;537.05;452.73;;;;;;;;;;4942472;28;20466;-74
2021/08/01 10:06:11;;;;;;;537.50;457.88;;;;;;;;;;4950208;29;20019;-73
2021/08/01 10:08:38;;;;;;;536.67;450.17;;;;;;;;;;4948667;28;20559;-74
2021/08/01 10:11:18;;;;;;;535.20;447.08;;;;;;;;;;4948461;29;20252;-74
2021/08/01 10:13:48;;;;;;;541.35;446.95;;;;;;;;;;4951135;28;20306;-74
2021/08/01 10:16:14;;;;;;;;;;;;;;;;;;4950830;29;20081;-74
2021/08/01 10:18:42;;;;;;;529.08;421.92;;;;;;;;;;4949337;29;19914;-74
2021/08/01 10:21:09;;;;;;;534.22;437.25;;;;;;;;;;4949305;29;20452;-75
2021/08/01 10:23:36;;;;;;;534.83;436.50;;;;;;;;;;4949182;28;20058;-75
2021/08/01 10:26:03;;;;;;;530.53;426.08;;;;;;;;;;4949869;28;20106;-74
2021/08/01 10:28:30;;;;;;;531.08;431.98;;;;;;;;;;4950153;28;20032;-74
2021/08/01 10:30:58;;;;;;;532.35;433.60;;;;;;;;;;4950277;29;20034;-74
2021/08/01 10:33:25;;;;;;;534.97;435.63;;;;;;;;;;4948756;28;20596;-74
2021/08/01 10:36:00;;;;;;;532.40;430.80;;;;;;;;;;4949684;28;20468;-73
2021/08/01 10:38:29;;;;;;;535.38;433.63;;;;;;;;;;4949368;29;20031;-74
2021/08/01 10:40:57;;;;;;;529.50;423.75;;;;;;;;;;4930203;29;20054;-74
2021/08/01 10:43:29;;;;;;;533.20;435.38;;;;;;;;;;4948996;29;20449;-74
2021/08/01 10:45:55;;;;;;;530.42;426.60;;;;;;;;;;4950283;29;20081;-74
2021/08/01 10:48:25;;;;;;;532.53;429.83;;;;;;;;;;4946652;29;20023;-74
2021/08/01 10:50:51;;;;;;;531.20;433.25;;;;;;;;;;4948209;29;20015;-74
2021/08/01 10:53:24;;;;;;;530.10;429.40;;;;;;;;;;4949712;29;20057;-74
2021/08/01 10:55:51;;;;;;;528.83;426.77;;;;;;;;;;4958865;28;20021;-73
2021/08/01 10:58:18;;;;;;;531.90;434.08;;;;;;;;;;4948552;28;20035;-74
2021/08/01 11:01:03;;;;;;;530.38;435.27;;;;;;;;;;4949616;29;20025;-75
2021/08/01 11:03:29;;;;;;;531.72;429.35;;;;;;;;;;4947922;29;20105;-73
2021/08/01 11:05:56;;;;;;;530.05;431.58;;;;;;;;;;4947699;29;20030;-73
2021/08/01 11:08:22;;;;;;;526.97;427.88;;;;;;;;;;4931116;29;20069;-74
2021/08/01 11:11:08;;;;;;;531.20;441.17;;;;;;;;;;4950115;29;20399;-74
2021/08/01 11:13:35;;;;;;;531.55;435.08;;;;;;;;;;4974936;28;20017;-74
2021/08/01 11:16:02;;;;;;;530.72;438.50;;;;;;;;;;5050542;28;20374;-74
2021/08/01 11:18:31;;;;;;;531.33;439.33;;;;;;;;;;4979869;28;20098;-74
2021/08/01 11:21:03;;;;;;;535.15;446.73;;;;;;;;;;4948803;29;20015;-74
2021/08/01 11:24:02;;;;;;;534.75;449.70;;;;;;;;;;4949133;29;20027;-74
2021/08/01 11:26:28;;;;;;;537.85;448.77;;;;;;;;;;4914242;29;20038;-74
2021/08/01 11:29:05;;;;;;;529.47;439.02;;;;;;;;;;4950489;28;20015;-74
2021/08/01 11:31:31;;;;;;;537.78;460.73;;;;;;;;;;4946772;29;20035;-74
2021/08/01 11:34:15;;;;;;;539.30;463.70;;;;;;;;;;4947299;29;20043;-73
2021/08/01 11:36:41;;;;;;;544.03;470.13;;;;;;;;;;4948913;29;20557;-74
2021/08/01 11:39:09;;;;;;;540.00;469.55;;;;;;;;;;4947196;29;20023;-74
2021/08/01 11:41:38;;;;;;;538.42;470.58;;;;;;;;;;4946596;29;20051;-75
2021/08/01 11:44:21;;;;;;;538.92;478.27;;;;;;;;;;4945746;29;20707;-74
2021/08/01 11:46:53;;;;;;;549.28;489.38;;;;;;;;;;4947861;29;20026;-74
2021/08/01 11:49:37;;;;;;;557.28;497.08;;;;;;;;;;4944872;28;20015;-75
2021/08/01 11:52:05;;;;;;;560.00;499.92;;;;;;;;;;4945411;29;20031;-75
2021/08/01 11:54:53;;;;;;;571.25;510.52;;;;;;;;;;4941816;29;20448;-75
2021/08/01 11:57:20;;;;;;;564.50;504.10;;;;;;;;;;4936157;28;20027;-77
2021/08/01 11:59:52;;;;;;;553.00;492.83;;;;;;;;;;4944047;28;20027;-76
2021/08/01 12:02:19;;;;;;;558.40;498.27;;;;;;;;;;4947218;29;20035;-76
2021/08/01 12:04:52;;;;;;;555.65;495.30;;;;;;;;;;4947727;29;20043;-76
2021/08/01 12:07:18;;;;;;;550.50;490.15;;;;;;;;;;4956864;28;20023;-76
2021/08/01 12:09:44;;;;;;;543.53;483.60;;;;;;;;;;4948994;28;20034;-76
2021/08/01 12:12:10;;;;;;;550.60;490.42;;;;;;;;;;4946492;28;20030;-77
2021/08/01 12:14:37;;;;;;;558.40;498.08;;;;;;;;;;4946874;29;20021;-75
2021/08/01 12:17:07;;;;;;;576.65;516.05;;;;;;;;;;4945998;28;20031;-76
2021/08/01 12:19:37;;;;;;;608.42;547.17;;;;;;;;;;4940307;28;20016;-78
2021/08/01 12:22:03;;;;;;;;;;;;;;;;;;4943739;29;20018;-77
2021/08/01 12:24:49;;;;;;;633.15;571.13;;;;;;;;;;4942722;29;19914;-74
2021/08/01 12:27:19;;;;;;;652.33;590.30;;;;;;;;;;4945029;28;20457;-73
2021/08/01 12:30:20;;;;;;;648.38;586.75;;;;;;;;;;4946255;29;20027;-75
2021/08/01 12:32:53;;;;;;;630.90;569.53;;;;;;;;;;4861867;29;20025;-75
2021/08/01 12:35:20;;;;;;;631.10;569.38;;;;;;;;;;4932630;29;20047;-75
2021/08/01 12:38:00;;;;;;;618.17;556.83;;;;;;;;;;4932982;29;20565;-75
2021/08/01 12:40:27;;;;;;;609.47;547.80;;;;;;;;;;4944529;28;20112;-75
2021/08/01 12:42:54;;;;;;;591.97;531.00;;;;;;;;;;4930434;29;20043;-75
2021/08/01 12:45:20;;;;;;;594.13;532.50;;;;;;;;;;4947389;29;20031;-76
2021/08/01 12:47:46;;;;;;;580.22;519.13;;;;;;;;;;4946008;29;20031;-75
2021/08/01 12:50:14;;;;;;;562.90;502.27;;;;;;;;;;4940787;28;20438;-76
2021/08/01 12:52:40;;;;;;;556.90;496.38;;;;;;;;;;4918611;28;20053;-76
2021/08/01 12:55:08;;;;;;;554.58;493.77;;;;;;;;;;4947393;29;20641;-76
2021/08/01 12:57:34;;;;;;;544.28;482.65;;;;;;;;;;4946034;28;20417;-75
2021/08/01 13:00:16;;;;;;;548.47;486.60;;;;;;;;;;4944127;28;20464;-76
2021/08/01 13:02:43;;;;;;;546.60;481.42;;;;;;;;;;4937384;29;20024;-76
2021/08/01 13:05:23;;;;;;;545.47;475.55;;;;;;;;;;4941548;28;20096;-77
2021/08/01 13:07:52;;;;;;;543.20;470.05;;;;;;;;;;4940950;28;20043;-76
2021/08/01 13:10:18;;;;;;;549.40;478.08;;;;;;;;;;4938979;28;20032;-75
2021/08/01 13:13:03;;;;;;;546.33;472.48;;;;;;;;;;4923688;28;20123;-75
2021/08/01 13:15:32;;;;;;;542.70;470.55;;;;;;;;;;4942795;29;20029;-75
2021/08/01 13:17:59;;;;;;;540.85;469.00;;;;;;;;;;4952972;28;20027;-77
2021/08/01 13:20:40;;;;;;;544.42;474.58;;;;;;;;;;4944601;28;20137;-75
2021/08/01 13:23:25;;;;;;;543.78;478.58;;;;;;;;;;4926870;29;20525;-76
2021/08/01 13:29:00;;;;;;;546.10;478.50;;;;;;;;;;4942292;29;20761;-76
2021/08/01 13:31:28;;;;;;;540.17;472.15;;;;;;;;;;4940952;28;20051;-75
2021/08/01 13:33:55;;;;;;;544.13;483.80;;;;;;;;;;4939890;29;20027;-75
2021/08/01 13:36:21;;;;;;;543.05;479.50;;;;;;;;;;4943189;28;20959;-75
2021/08/01 13:38:58;;;;;;;544.13;477.85;;;;;;;;;;4936645;28;20031;-75
2021/08/01 13:41:24;;;;;;;554.08;490.23;;;;;;;;;;4930728;29;20762;-75
2021/08/01 13:44:16;;;;;;;552.47;490.30;;;;;;;;;;4932695;29;20039;-74
2021/08/01 13:46:43;;;;;;;549.75;484.17;;;;;;;;;;4930208;28;20043;-75
2021/08/01 13:49:11;;;;;;;549.90;485.90;;;;;;;;;;4932891;29;20142;-75
2021/08/01 13:51:37;;;;;;;549.67;480.25;;;;;;;;;;4932753;29;20039;-75
2021/08/01 13:54:03;;;;;;;546.20;471.45;;;;;;;;;;4929201;29;20673;-76
2021/08/01 13:56:30;;;;;;;549.90;475.58;;;;;;;;;;4928778;29;20035;-75
2021/08/01 13:58:56;;;;;;;548.55;475.83;;;;;;;;;;4933073;29;20027;-76
2021/08/01 14:01:26;;;;;;;547.72;471.92;;;;;;;;;;4932862;29;20050;-77
2021/08/01 14:03:52;;;;;;;545.77;469.73;;;;;;;;;;4929284;28;20528;-75